sensor_id;sensor_type;location;lat;lon;timestamp;pressure;altitude;pressure_sealevel;temperature;humidity
46886;BME280;32622;48.202;11.326;2024-02-21T00:01:43;1030.90;;;3.71;31.98
46886;BME280;32622;48.202;11.326;2024-02-21T00:03:46;1030.76;;;4.49;31.48
46886;BME280;32622;48.202;11.326;2024-02-21T00:05:48;1030.59;;;5.19;31.24
46886;BME280;32622;48.202;11.326;2024-02-21T00:07:50;1030.73;;;4.60;31.43
46886;BME280;32622;48.202;11.326;2024-02-21T00:09:52;1030.66;;;4.72;31.16
46886;BME280;32622;48.202;11.326;2024-02-21T00:11:54;1030.62;;;4.93;31.19
46886;BME280;32622;48.202;11.326;2024-02-21T00:13:56;1030.58;;;4.83;31.11
46886;BME280;32622;48.202;11.326;2024-02-21T00:16:00;1030.54;;;4.93;31.19
46886;BME280;32622;48.202;11.326;2024-02-21T00:18:03;1030.51;;;5.02;31.15
46886;BME280;32622;48.202;11.326;2024-02-21T00:20:06;1030.54;;;4.91;31.38
46886;BME280;32622;48.202;11.326;2024-02-21T00:22:08;1030.53;;;4.86;31.17
46886;BME280;32622;48.202;11.326;2024-02-21T00:24:10;1030.54;;;4.56;31.52
46886;BME280;32622;48.202;11.326;2024-02-21T00:26:13;1030.49;;;4.58;31.63
46886;BME280;32622;48.202;11.326;2024-02-21T00:28:15;1030.38;;;4.88;31.27
46886;BME280;32622;48.202;11.326;2024-02-21T00:30:17;1030.27;;;5.13;31.23
46886;BME280;32622;48.202;11.326;2024-02-21T00:32:19;1030.29;;;4.97;31.25
46886;BME280;32622;48.202;11.326;2024-02-21T00:34:21;1030.20;;;5.10;31.01
46886;BME280;32622;48.202;11.326;2024-02-21T00:36:23;1030.28;;;4.69;31.26
46886;BME280;32622;48.202;11.326;2024-02-21T00:38:25;1030.11;;;5.18;31.39
46886;BME280;32622;48.202;11.326;2024-02-21T00:40:27;1030.13;;;5.05;31.18
46886;BME280;32622;48.202;11.326;2024-02-21T00:42:29;1030.13;;;5.06;31.16
46886;BME280;32622;48.202;11.326;2024-02-21T00:44:32;1030.16;;;4.90;31.26
46886;BME280;32622;48.202;11.326;2024-02-21T00:46:34;1030.18;;;5.00;31.42
46886;BME280;32622;48.202;11.326;2024-02-21T00:48:36;1030.14;;;5.05;31.21
46886;BME280;32622;48.202;11.326;2024-02-21T00:50:38;1030.13;;;5.14;31.12
46886;BME280;32622;48.202;11.326;2024-02-21T00:52:40;1030.12;;;5.10;31.27
46886;BME280;32622;48.202;11.326;2024-02-21T00:54:42;1030.13;;;5.21;31.08
46886;BME280;32622;48.202;11.326;2024-02-21T00:56:44;1030.28;;;4.59;31.26
46886;BME280;32622;48.202;11.326;2024-02-21T00:58:46;1030.01;;;5.61;31.09
46886;BME280;32622;48.202;11.326;2024-02-21T01:00:49;1030.06;;;5.35;31.34
46886;BME280;32622;48.202;11.326;2024-02-21T01:02:51;1030.13;;;4.88;31.63
46886;BME280;32622;48.202;11.326;2024-02-21T01:04:53;1029.86;;;5.93;30.88
46886;BME280;32622;48.202;11.326;2024-02-21T01:06:55;1030.05;;;5.06;30.91
46886;BME280;32622;48.202;11.326;2024-02-21T01:08:57;1030.08;;;4.94;30.88
46886;BME280;32622;48.202;11.326;2024-02-21T01:10:59;1029.86;;;6.05;30.51
46886;BME280;32622;48.202;11.326;2024-02-21T01:13:02;1029.95;;;5.47;30.79
46886;BME280;32622;48.202;11.326;2024-02-21T01:15:04;1029.95;;;5.29;31.00
46886;BME280;32622;48.202;11.326;2024-02-21T01:17:07;1029.90;;;5.36;30.88
46886;BME280;32622;48.202;11.326;2024-02-21T01:19:09;1029.86;;;5.47;30.79
46886;BME280;32622;48.202;11.326;2024-02-21T01:21:11;1029.81;;;5.57;30.91
46886;BME280;32622;48.202;11.326;2024-02-21T01:23:13;1029.87;;;5.20;30.73
46886;BME280;32622;48.202;11.326;2024-02-21T01:25:16;1029.78;;;5.54;30.63
46886;BME280;32622;48.202;11.326;2024-02-21T01:27:18;1029.80;;;5.41;31.04
46886;BME280;32622;48.202;11.326;2024-02-21T01:29:20;1029.74;;;5.63;31.05
46886;BME280;32622;48.202;11.326;2024-02-21T01:31:22;1029.71;;;5.67;30.87
46886;BME280;32622;48.202;11.326;2024-02-21T01:33:24;1029.75;;;5.39;31.03
46886;BME280;32622;48.202;11.326;2024-02-21T01:35:26;1029.69;;;5.51;31.19
46886;BME280;32622;48.202;11.326;2024-02-21T01:37:28;1029.74;;;5.13;30.95
46886;BME280;32622;48.202;11.326;2024-02-21T01:39:31;1029.61;;;5.55;30.86
46886;BME280;32622;48.202;11.326;2024-02-21T01:41:33;1029.69;;;5.13;30.87
46886;BME280;32622;48.202;11.326;2024-02-21T01:43:35;1029.55;;;5.78;30.94
46886;BME280;32622;48.202;11.326;2024-02-21T01:45:37;1029.53;;;5.73;31.02
46886;BME280;32622;48.202;11.326;2024-02-21T01:47:39;1029.56;;;5.61;31.18
46886;BME280;32622;48.202;11.326;2024-02-21T01:49:42;1029.52;;;5.46;31.31
46886;BME280;32622;48.202;11.326;2024-02-21T01:51:44;1029.51;;;5.39;31.09
46886;BME280;32622;48.202;11.326;2024-02-21T01:53:47;1029.46;;;5.68;31.12
46886;BME280;32622;48.202;11.326;2024-02-21T01:55:49;1029.43;;;5.59;30.76
46886;BME280;32622;48.202;11.326;2024-02-21T01:57:52;1029.45;;;5.38;31.14
46886;BME280;32622;48.202;11.326;2024-02-21T01:59:54;1029.38;;;5.55;30.71
46886;BME280;32622;48.202;11.326;2024-02-21T02:01:56;1029.30;;;5.65;31.15
46886;BME280;32622;48.202;11.326;2024-02-21T02:03:59;1029.45;;;4.92;31.23
46886;BME280;32622;48.202;11.326;2024-02-21T02:06:02;1029.16;;;6.07;30.93
46886;BME280;32622;48.202;11.326;2024-02-21T02:08:04;1029.34;;;5.16;31.02
46886;BME280;32622;48.202;11.326;2024-02-21T02:10:09;1029.22;;;5.56;30.98
46886;BME280;32622;48.202;11.326;2024-02-21T02:12:11;1029.30;;;5.12;30.92
46886;BME280;32622;48.202;11.326;2024-02-21T02:14:13;1029.26;;;5.05;31.00
46886;BME280;32622;48.202;11.326;2024-02-21T02:16:15;1029.14;;;5.48;30.71
46886;BME280;32622;48.202;11.326;2024-02-21T02:18:18;1029.06;;;5.68;30.84
46886;BME280;32622;48.202;11.326;2024-02-21T02:20:21;1029.14;;;5.15;31.03
46886;BME280;32622;48.202;11.326;2024-02-21T02:22:28;1029.02;;;5.52;31.01
46886;BME280;32622;48.202;11.326;2024-02-21T02:24:30;1028.88;;;5.94;30.73
46886;BME280;32622;48.202;11.326;2024-02-21T02:26:32;1029.00;;;5.30;30.70
46886;BME280;32622;48.202;11.326;2024-02-21T02:28:34;1028.88;;;5.85;30.69
46886;BME280;32622;48.202;11.326;2024-02-21T02:30:36;1028.86;;;5.84;30.61
46886;BME280;32622;48.202;11.326;2024-02-21T02:32:38;1028.76;;;6.15;30.71
46886;BME280;32622;48.202;11.326;2024-02-21T02:34:40;1028.84;;;5.58;30.57
46886;BME280;32622;48.202;11.326;2024-02-21T02:36:42;1028.82;;;5.77;30.74
46886;BME280;32622;48.202;11.326;2024-02-21T02:38:45;1028.73;;;5.66;30.41
46886;BME280;32622;48.202;11.326;2024-02-21T02:40:47;1028.77;;;5.50;30.53
46886;BME280;32622;48.202;11.326;2024-02-21T02:42:49;1028.83;;;5.09;30.69
46886;BME280;32622;48.202;11.326;2024-02-21T02:44:51;1028.67;;;5.52;30.37
46886;BME280;32622;48.202;11.326;2024-02-21T02:46:53;1028.73;;;5.16;31.22
46886;BME280;32622;48.202;11.326;2024-02-21T02:48:55;1028.68;;;5.31;30.58
46886;BME280;32622;48.202;11.326;2024-02-21T02:50:57;1028.61;;;5.62;30.60
46886;BME280;32622;48.202;11.326;2024-02-21T02:53:00;1028.76;;;5.20;30.57
46886;BME280;32622;48.202;11.326;2024-02-21T02:55:02;1028.76;;;5.08;30.60
46886;BME280;32622;48.202;11.326;2024-02-21T02:57:04;1028.77;;;4.99;31.07
46886;BME280;32622;48.202;11.326;2024-02-21T02:59:06;1028.58;;;5.65;30.78
46886;BME280;32622;48.202;11.326;2024-02-21T03:01:08;1028.74;;;4.86;31.00
46886;BME280;32622;48.202;11.326;2024-02-21T03:03:11;1028.45;;;5.97;30.59
46886;BME280;32622;48.202;11.326;2024-02-21T03:05:14;1028.42;;;6.07;30.53
46886;BME280;32622;48.202;11.326;2024-02-21T03:07:16;1028.57;;;5.43;30.46
46886;BME280;32622;48.202;11.326;2024-02-21T03:09:19;1028.43;;;5.95;30.34
46886;BME280;32622;48.202;11.326;2024-02-21T03:11:21;1028.54;;;5.57;30.59
46886;BME280;32622;48.202;11.326;2024-02-21T03:13:23;1028.50;;;5.70;30.76
46886;BME280;32622;48.202;11.326;2024-02-21T03:15:25;1028.65;;;5.12;30.75
46886;BME280;32622;48.202;11.326;2024-02-21T03:17:27;1028.74;;;4.91;30.84
46886;BME280;32622;48.202;11.326;2024-02-21T03:19:29;1028.45;;;5.92;30.62
46886;BME280;32622;48.202;11.326;2024-02-21T03:21:31;1028.52;;;5.50;30.36
46886;BME280;32622;48.202;11.326;2024-02-21T03:23:34;1028.61;;;5.14;30.61
46886;BME280;32622;48.202;11.326;2024-02-21T03:25:36;1028.57;;;5.22;30.56
46886;BME280;32622;48.202;11.326;2024-02-21T03:27:38;1028.67;;;4.97;30.60
46886;BME280;32622;48.202;11.326;2024-02-21T03:29:40;1028.65;;;5.20;30.72
46886;BME280;32622;48.202;11.326;2024-02-21T03:31:43;1028.56;;;5.54;30.79
46886;BME280;32622;48.202;11.326;2024-02-21T03:33:45;1028.49;;;5.89;30.72
46886;BME280;32622;48.202;11.326;2024-02-21T03:35:47;1028.36;;;6.09;30.28
46886;BME280;32622;48.202;11.326;2024-02-21T03:37:49;1028.39;;;5.72;30.36
46886;BME280;32622;48.202;11.326;2024-02-21T03:39:51;1028.35;;;5.85;30.53
46886;BME280;32622;48.202;11.326;2024-02-21T03:41:53;1028.47;;;5.46;30.65
46886;BME280;32622;48.202;11.326;2024-02-21T03:43:55;1028.49;;;5.32;30.71
46886;BME280;32622;48.202;11.326;2024-02-21T03:45:58;1028.47;;;5.23;30.68
46886;BME280;32622;48.202;11.326;2024-02-21T03:48:00;1028.42;;;5.32;31.04
46886;BME280;32622;48.202;11.326;2024-02-21T03:50:02;1028.46;;;5.32;30.51
46886;BME280;32622;48.202;11.326;2024-02-21T03:52:04;1028.47;;;5.38;30.76
46886;BME280;32622;48.202;11.326;2024-02-21T03:54:06;1028.40;;;5.66;30.52
46886;BME280;32622;48.202;11.326;2024-02-21T03:56:09;1028.53;;;5.19;30.68
46886;BME280;32622;48.202;11.326;2024-02-21T03:58:11;1028.56;;;5.12;30.76
46886;BME280;32622;48.202;11.326;2024-02-21T04:00:13;1028.62;;;4.76;30.64
46886;BME280;32622;48.202;11.326;2024-02-21T04:02:16;1028.57;;;4.99;30.90
46886;BME280;32622;48.202;11.326;2024-02-21T04:04:18;1028.32;;;5.82;30.49
46886;BME280;32622;48.202;11.326;2024-02-21T04:06:20;1028.40;;;5.70;30.64
46886;BME280;32622;48.202;11.326;2024-02-21T04:08:22;1028.57;;;4.94;30.67
46886;BME280;32622;48.202;11.326;2024-02-21T04:10:25;1028.27;;;5.96;30.39
46886;BME280;32622;48.202;11.326;2024-02-21T04:12:27;1028.45;;;5.43;30.53
46886;BME280;32622;48.202;11.326;2024-02-21T04:14:29;1028.35;;;5.73;30.64
46886;BME280;32622;48.202;11.326;2024-02-21T04:16:31;1028.30;;;5.68;30.38
46886;BME280;32622;48.202;11.326;2024-02-21T04:18:33;1028.24;;;5.76;30.52
46886;BME280;32622;48.202;11.326;2024-02-21T04:20:35;1028.35;;;4.93;30.56
46886;BME280;32622;48.202;11.326;2024-02-21T04:22:37;1028.27;;;5.24;30.29
46886;BME280;32622;48.202;11.326;2024-02-21T04:24:39;1028.19;;;5.53;30.41
46886;BME280;32622;48.202;11.326;2024-02-21T04:26:41;1028.11;;;5.71;30.45
46886;BME280;32622;48.202;11.326;2024-02-21T04:28:45;1028.22;;;5.26;30.72
46886;BME280;32622;48.202;11.326;2024-02-21T04:30:47;1028.06;;;5.71;30.26
46886;BME280;32622;48.202;11.326;2024-02-21T04:32:49;1028.16;;;5.30;30.64
46886;BME280;32622;48.202;11.326;2024-02-21T04:34:51;1028.13;;;5.16;30.74
46886;BME280;32622;48.202;11.326;2024-02-21T04:36:53;1028.06;;;5.15;30.65
46886;BME280;32622;48.202;11.326;2024-02-21T04:38:55;1027.92;;;5.41;30.40
46886;BME280;32622;48.202;11.326;2024-02-21T04:40:57;1027.81;;;5.68;30.54
46886;BME280;32622;48.202;11.326;2024-02-21T04:42:59;1027.78;;;5.59;30.53
46886;BME280;32622;48.202;11.326;2024-02-21T04:45:02;1027.64;;;5.96;30.27
46886;BME280;32622;48.202;11.326;2024-02-21T04:47:04;1027.68;;;5.58;30.20
46886;BME280;32622;48.202;11.326;2024-02-21T04:49:06;1027.67;;;5.50;30.32
46886;BME280;32622;48.202;11.326;2024-02-21T04:51:09;1027.64;;;5.54;30.49
46886;BME280;32622;48.202;11.326;2024-02-21T04:53:11;1027.60;;;5.54;30.32
46886;BME280;32622;48.202;11.326;2024-02-21T04:55:13;1027.87;;;4.38;31.04
46886;BME280;32622;48.202;11.326;2024-02-21T04:57:15;1027.78;;;4.81;31.00
46886;BME280;32622;48.202;11.326;2024-02-21T04:59:17;1027.79;;;4.96;30.93
46886;BME280;32622;48.202;11.326;2024-02-21T05:01:19;1027.74;;;5.02;30.87
46886;BME280;32622;48.202;11.326;2024-02-21T05:03:22;1027.54;;;5.59;30.76
46886;BME280;32622;48.202;11.326;2024-02-21T05:05:24;1027.86;;;4.09;31.39
46886;BME280;32622;48.202;11.326;2024-02-21T05:07:26;1027.55;;;5.11;30.74
46886;BME280;32622;48.202;11.326;2024-02-21T05:09:28;1027.50;;;5.18;30.97
46886;BME280;32622;48.202;11.326;2024-02-21T05:11:30;1027.48;;;5.01;30.55
46886;BME280;32622;48.202;11.326;2024-02-21T05:13:32;1027.34;;;5.42;30.40
46886;BME280;32622;48.202;11.326;2024-02-21T05:15:34;1027.43;;;5.20;30.52
46886;BME280;32622;48.202;11.326;2024-02-21T05:17:36;1027.35;;;5.45;30.42
46886;BME280;32622;48.202;11.326;2024-02-21T05:19:38;1027.41;;;5.12;30.55
46886;BME280;32622;48.202;11.326;2024-02-21T05:21:40;1027.42;;;4.96;30.73
46886;BME280;32622;48.202;11.326;2024-02-21T05:23:43;1027.37;;;5.01;30.71
46886;BME280;32622;48.202;11.326;2024-02-21T05:25:45;1027.25;;;5.24;30.48
46886;BME280;32622;48.202;11.326;2024-02-21T05:27:47;1027.39;;;4.78;30.64
46886;BME280;32622;48.202;11.326;2024-02-21T05:29:49;1027.25;;;5.39;30.45
46886;BME280;32622;48.202;11.326;2024-02-21T05:31:58;1027.19;;;5.55;30.31
46886;BME280;32622;48.202;11.326;2024-02-21T05:34:00;1027.17;;;5.35;30.25
46886;BME280;32622;48.202;11.326;2024-02-21T05:36:03;1027.23;;;4.88;30.61
46886;BME280;32622;48.202;11.326;2024-02-21T05:38:06;1027.17;;;5.07;30.46
46886;BME280;32622;48.202;11.326;2024-02-21T05:40:10;1027.23;;;4.73;31.33
46886;BME280;32622;48.202;11.326;2024-02-21T05:42:12;1027.17;;;4.91;30.97
46886;BME280;32622;48.202;11.326;2024-02-21T05:44:14;1027.17;;;5.06;30.79
46886;BME280;32622;48.202;11.326;2024-02-21T05:46:19;1027.18;;;5.03;30.53
46886;BME280;32622;48.202;11.326;2024-02-21T05:48:22;1027.17;;;4.67;30.79
46886;BME280;32622;48.202;11.326;2024-02-21T05:50:24;1027.03;;;5.14;30.61
46886;BME280;32622;48.202;11.326;2024-02-21T05:52:26;1027.07;;;4.88;30.58
46886;BME280;32622;48.202;11.326;2024-02-21T05:54:28;1027.12;;;4.57;30.73
46886;BME280;32622;48.202;11.326;2024-02-21T05:56:30;1027.00;;;4.88;30.52
46886;BME280;32622;48.202;11.326;2024-02-21T05:58:32;1027.04;;;4.75;30.67
46886;BME280;32622;48.202;11.326;2024-02-21T06:00:35;1027.02;;;4.68;30.77
46886;BME280;32622;48.202;11.326;2024-02-21T06:02:37;1026.98;;;4.69;30.66
46886;BME280;32622;48.202;11.326;2024-02-21T06:04:39;1026.92;;;4.86;30.41
46886;BME280;32622;48.202;11.326;2024-02-21T06:06:41;1026.91;;;4.80;30.54
46886;BME280;32622;48.202;11.326;2024-02-21T06:08:43;1026.86;;;5.08;30.46
46886;BME280;32622;48.202;11.326;2024-02-21T06:10:45;1026.83;;;5.06;30.36
46886;BME280;32622;48.202;11.326;2024-02-21T06:12:47;1026.85;;;4.94;30.36
46886;BME280;32622;48.202;11.326;2024-02-21T06:14:49;1026.84;;;5.03;30.34
46886;BME280;32622;48.202;11.326;2024-02-21T06:16:52;1026.85;;;4.81;30.48
46886;BME280;32622;48.202;11.326;2024-02-21T06:18:54;1026.79;;;4.91;30.50
46886;BME280;32622;48.202;11.326;2024-02-21T06:20:56;1026.66;;;5.17;30.28
46886;BME280;32622;48.202;11.326;2024-02-21T06:22:58;1026.61;;;5.31;29.99
46886;BME280;32622;48.202;11.326;2024-02-21T06:25:00;1026.75;;;4.84;30.13
46886;BME280;32622;48.202;11.326;2024-02-21T06:27:03;1026.65;;;5.14;29.91
46886;BME280;32622;48.202;11.326;2024-02-21T06:29:05;1026.60;;;5.40;29.60
46886;BME280;32622;48.202;11.326;2024-02-21T06:31:07;1026.77;;;4.91;30.01
46886;BME280;32622;48.202;11.326;2024-02-21T06:33:09;1026.81;;;4.93;29.99
46886;BME280;32622;48.202;11.326;2024-02-21T06:35:11;1026.84;;;4.97;30.12
46886;BME280;32622;48.202;11.326;2024-02-21T06:37:13;1026.84;;;4.96;29.77
46886;BME280;32622;48.202;11.326;2024-02-21T06:39:16;1026.81;;;5.14;29.63
46886;BME280;32622;48.202;11.326;2024-02-21T06:41:18;1026.84;;;4.95;29.45
46886;BME280;32622;48.202;11.326;2024-02-21T06:43:21;1026.71;;;5.23;29.18
46886;BME280;32622;48.202;11.326;2024-02-21T06:45:23;1026.68;;;5.26;29.24
46886;BME280;32622;48.202;11.326;2024-02-21T06:47:25;1026.76;;;4.90;29.34
46886;BME280;32622;48.202;11.326;2024-02-21T06:49:27;1026.68;;;5.06;29.32
46886;BME280;32622;48.202;11.326;2024-02-21T06:51:29;1026.73;;;4.75;29.52
46886;BME280;32622;48.202;11.326;2024-02-21T06:53:31;1026.67;;;4.83;29.44
46886;BME280;32622;48.202;11.326;2024-02-21T06:55:34;1026.58;;;5.04;29.43
46886;BME280;32622;48.202;11.326;2024-02-21T06:57:36;1026.64;;;5.05;29.59
46886;BME280;32622;48.202;11.326;2024-02-21T06:59:38;1026.61;;;5.14;29.61
46886;BME280;32622;48.202;11.326;2024-02-21T07:01:40;1026.61;;;5.21;29.36
46886;BME280;32622;48.202;11.326;2024-02-21T07:03:42;1026.65;;;5.39;29.18
46886;BME280;32622;48.202;11.326;2024-02-21T07:05:44;1026.66;;;5.51;29.27
46886;BME280;32622;48.202;11.326;2024-02-21T07:07:46;1026.77;;;5.26;29.38
46886;BME280;32622;48.202;11.326;2024-02-21T07:09:48;1026.73;;;5.42;29.06
46886;BME280;32622;48.202;11.326;2024-02-21T07:11:50;1026.65;;;5.59;28.77
46886;BME280;32622;48.202;11.326;2024-02-21T07:13:53;1026.68;;;5.32;28.81
46886;BME280;32622;48.202;11.326;2024-02-21T07:15:55;1026.57;;;5.62;28.75
46886;BME280;32622;48.202;11.326;2024-02-21T07:17:57;1026.56;;;5.50;28.74
46886;BME280;32622;48.202;11.326;2024-02-21T07:19:59;1026.52;;;5.51;28.95
46886;BME280;32622;48.202;11.326;2024-02-21T07:22:01;1026.51;;;5.39;29.04
46886;BME280;32622;48.202;11.326;2024-02-21T07:24:03;1026.53;;;5.35;28.83
46886;BME280;32622;48.202;11.326;2024-02-21T07:26:05;1026.49;;;5.31;29.09
46886;BME280;32622;48.202;11.326;2024-02-21T07:28:08;1026.45;;;5.53;29.05
46886;BME280;32622;48.202;11.326;2024-02-21T07:30:11;1026.46;;;5.54;28.91
46886;BME280;32622;48.202;11.326;2024-02-21T07:32:13;1026.36;;;5.91;28.56
46886;BME280;32622;48.202;11.326;2024-02-21T07:34:15;1026.35;;;5.79;28.54
46886;BME280;32622;48.202;11.326;2024-02-21T07:36:28;1026.38;;;5.35;28.88
46886;BME280;32622;48.202;11.326;2024-02-21T07:38:30;1026.37;;;5.53;28.61
46886;BME280;32622;48.202;11.326;2024-02-21T07:40:32;1026.33;;;5.59;28.92
46886;BME280;32622;48.202;11.326;2024-02-21T07:42:34;1026.28;;;5.75;28.75
46886;BME280;32622;48.202;11.326;2024-02-21T07:44:36;1026.42;;;5.04;28.62
46886;BME280;32622;48.202;11.326;2024-02-21T07:46:38;1026.18;;;5.96;28.56
46886;BME280;32622;48.202;11.326;2024-02-21T07:48:41;1026.28;;;5.43;28.68
46886;BME280;32622;48.202;11.326;2024-02-21T07:50:43;1026.35;;;4.82;28.90
46886;BME280;32622;48.202;11.326;2024-02-21T07:52:45;1026.24;;;5.39;28.83
46886;BME280;32622;48.202;11.326;2024-02-21T07:54:47;1026.17;;;5.38;28.87
46886;BME280;32622;48.202;11.326;2024-02-21T07:56:49;1026.11;;;5.60;28.57
46886;BME280;32622;48.202;11.326;2024-02-21T07:58:51;1026.07;;;5.64;28.73
46886;BME280;32622;48.202;11.326;2024-02-21T08:00:53;1026.04;;;5.60;28.72
46886;BME280;32622;48.202;11.326;2024-02-21T08:02:56;1026.03;;;5.68;28.88
46886;BME280;32622;48.202;11.326;2024-02-21T08:04:58;1026.16;;;4.94;29.14
46886;BME280;32622;48.202;11.326;2024-02-21T08:07:00;1026.07;;;5.27;29.05
46886;BME280;32622;48.202;11.326;2024-02-21T08:09:02;1026.09;;;5.03;29.01
46886;BME280;32622;48.202;11.326;2024-02-21T08:11:04;1025.98;;;5.35;29.15
46886;BME280;32622;48.202;11.326;2024-02-21T08:13:06;1025.82;;;6.05;28.37
46886;BME280;32622;48.202;11.326;2024-02-21T08:15:09;1025.97;;;5.44;28.71
46886;BME280;32622;48.202;11.326;2024-02-21T08:17:11;1025.90;;;5.88;28.67
46886;BME280;32622;48.202;11.326;2024-02-21T08:19:13;1025.91;;;5.92;28.58
46886;BME280;32622;48.202;11.326;2024-02-21T08:21:15;1025.92;;;5.95;28.80
46886;BME280;32622;48.202;11.326;2024-02-21T08:23:18;1025.97;;;5.70;28.54
46886;BME280;32622;48.202;11.326;2024-02-21T08:25:20;1026.01;;;5.37;28.62
46886;BME280;32622;48.202;11.326;2024-02-21T08:27:23;1025.89;;;5.89;28.53
46886;BME280;32622;48.202;11.326;2024-02-21T08:29:25;1025.84;;;6.01;28.22
46886;BME280;32622;48.202;11.326;2024-02-21T08:31:27;1025.80;;;6.22;28.19
46886;BME280;32622;48.202;11.326;2024-02-21T08:33:30;1025.83;;;6.04;27.93
46886;BME280;32622;48.202;11.326;2024-02-21T08:35:32;1025.75;;;6.39;28.19
46886;BME280;32622;48.202;11.326;2024-02-21T08:37:34;1025.54;;;6.97;27.85
46886;BME280;32622;48.202;11.326;2024-02-21T08:39:36;1025.60;;;6.71;27.50
46886;BME280;32622;48.202;11.326;2024-02-21T08:41:38;1025.56;;;6.82;27.63
46886;BME280;32622;48.202;11.326;2024-02-21T08:43:40;1025.40;;;7.16;27.65
46886;BME280;32622;48.202;11.326;2024-02-21T08:45:42;1025.44;;;7.00;27.55
46886;BME280;32622;48.202;11.326;2024-02-21T08:47:44;1025.29;;;7.39;27.09
46886;BME280;32622;48.202;11.326;2024-02-21T08:49:46;1025.33;;;7.14;26.32
46886;BME280;32622;48.202;11.326;2024-02-21T08:51:48;1025.21;;;7.43;26.47
46886;BME280;32622;48.202;11.326;2024-02-21T08:53:50;1025.03;;;8.11;26.49
46886;BME280;32622;48.202;11.326;2024-02-21T08:55:53;1025.05;;;8.03;26.49
46886;BME280;32622;48.202;11.326;2024-02-21T08:57:55;1025.15;;;7.72;26.07
46886;BME280;32622;48.202;11.326;2024-02-21T08:59:57;1025.16;;;7.64;26.41
46886;BME280;32622;48.202;11.326;2024-02-21T09:01:59;1025.07;;;8.24;26.09
46886;BME280;32622;48.202;11.326;2024-02-21T09:04:01;1025.12;;;8.01;25.84
46886;BME280;32622;48.202;11.326;2024-02-21T09:06:04;1025.06;;;8.26;26.25
46886;BME280;32622;48.202;11.326;2024-02-21T09:08:07;1024.92;;;8.75;25.90
46886;BME280;32622;48.202;11.326;2024-02-21T09:10:09;1024.99;;;8.25;25.45
46886;BME280;32622;48.202;11.326;2024-02-21T09:12:11;1024.94;;;8.50;24.97
46886;BME280;32622;48.202;11.326;2024-02-21T09:14:14;1025.11;;;8.01;25.61
46886;BME280;32622;48.202;11.326;2024-02-21T09:16:16;1024.98;;;8.70;25.59
46886;BME280;32622;48.202;11.326;2024-02-21T09:18:18;1024.99;;;8.75;25.11
46886;BME280;32622;48.202;11.326;2024-02-21T09:20:20;1025.04;;;8.49;24.75
46886;BME280;32622;48.202;11.326;2024-02-21T09:22:22;1025.03;;;8.44;24.50
46886;BME280;32622;48.202;11.326;2024-02-21T09:24:24;1025.15;;;7.94;24.66
46886;BME280;32622;48.202;11.326;2024-02-21T09:26:26;1024.93;;;8.72;24.53
46886;BME280;32622;48.202;11.326;2024-02-21T09:28:28;1025.02;;;8.22;24.28
46886;BME280;32622;48.202;11.326;2024-02-21T09:30:31;1024.81;;;8.77;24.13
46886;BME280;32622;48.202;11.326;2024-02-21T09:32:33;1024.86;;;8.38;24.32
46886;BME280;32622;48.202;11.326;2024-02-21T09:34:35;1024.85;;;8.24;23.28
46886;BME280;32622;48.202;11.326;2024-02-21T09:36:37;1024.83;;;8.31;24.41
46886;BME280;32622;48.202;11.326;2024-02-21T09:38:40;1024.88;;;7.96;24.95
46886;BME280;32622;48.202;11.326;2024-02-21T09:40:42;1024.70;;;8.47;25.33
46886;BME280;32622;48.202;11.326;2024-02-21T09:42:47;1024.66;;;8.51;25.68
46886;BME280;32622;48.202;11.326;2024-02-21T09:44:50;1024.64;;;8.45;24.08
46886;BME280;32622;48.202;11.326;2024-02-21T09:46:57;1024.68;;;8.39;24.79
46886;BME280;32622;48.202;11.326;2024-02-21T09:49:13;1024.57;;;8.75;24.10
46886;BME280;32622;48.202;11.326;2024-02-21T09:51:20;1024.65;;;8.50;24.57
46886;BME280;32622;48.202;11.326;2024-02-21T09:53:24;1024.72;;;8.21;24.55
46886;BME280;32622;48.202;11.326;2024-02-21T09:55:27;1024.71;;;8.22;24.08
46886;BME280;32622;48.202;11.326;2024-02-21T09:57:31;1024.48;;;9.21;24.23
46886;BME280;32622;48.202;11.326;2024-02-21T09:59:33;1024.60;;;8.61;24.72
46886;BME280;32622;48.202;11.326;2024-02-21T10:01:36;1024.44;;;9.19;23.52
46886;BME280;32622;48.202;11.326;2024-02-21T10:03:38;1024.53;;;8.51;23.99
46886;BME280;32622;48.202;11.326;2024-02-21T10:05:47;1024.62;;;8.16;24.91
46886;BME280;32622;48.202;11.326;2024-02-21T10:07:49;1024.49;;;8.55;23.36
46886;BME280;32622;48.202;11.326;2024-02-21T10:10:00;1024.26;;;9.34;22.71
46886;BME280;32622;48.202;11.326;2024-02-21T10:12:11;1024.49;;;8.58;24.52
46886;BME280;32622;48.202;11.326;2024-02-21T10:14:14;1024.53;;;8.40;24.47
46886;BME280;32622;48.202;11.326;2024-02-21T10:16:17;1024.52;;;8.38;24.36
46886;BME280;32622;48.202;11.326;2024-02-21T10:18:19;1024.46;;;8.62;23.87
46886;BME280;32622;48.202;11.326;2024-02-21T10:20:21;1024.32;;;8.99;23.84
46886;BME280;32622;48.202;11.326;2024-02-21T10:22:23;1024.24;;;9.40;23.59
46886;BME280;32622;48.202;11.326;2024-02-21T10:24:26;1024.29;;;8.95;23.47
46886;BME280;32622;48.202;11.326;2024-02-21T10:26:28;1024.33;;;8.74;24.54
46886;BME280;32622;48.202;11.326;2024-02-21T10:28:31;1024.37;;;8.51;23.39
46886;BME280;32622;48.202;11.326;2024-02-21T10:30:33;1024.30;;;8.43;23.77
46886;BME280;32622;48.202;11.326;2024-02-21T10:32:35;1024.36;;;7.84;24.81
46886;BME280;32622;48.202;11.326;2024-02-21T10:34:39;1024.19;;;8.32;23.98
46886;BME280;32622;48.202;11.326;2024-02-21T10:36:41;1023.90;;;9.29;23.74
46886;BME280;32622;48.202;11.326;2024-02-21T10:38:43;1023.96;;;8.91;23.71
46886;BME280;32622;48.202;11.326;2024-02-21T10:40:47;1024.10;;;8.07;23.97
46886;BME280;32622;48.202;11.326;2024-02-21T10:42:55;1024.02;;;8.27;24.77
46886;BME280;32622;48.202;11.326;2024-02-21T10:45:01;1023.81;;;9.01;23.97
46886;BME280;32622;48.202;11.326;2024-02-21T10:47:08;1023.78;;;9.12;23.93
46886;BME280;32622;48.202;11.326;2024-02-21T10:49:14;1023.67;;;9.56;23.27
46886;BME280;32622;48.202;11.326;2024-02-21T10:51:21;1023.61;;;9.62;22.83
46886;BME280;32622;48.202;11.326;2024-02-21T10:53:33;1023.54;;;9.85;22.76
46886;BME280;32622;48.202;11.326;2024-02-21T10:55:40;1023.53;;;9.70;23.11
46886;BME280;32622;48.202;11.326;2024-02-21T10:57:43;1023.47;;;9.74;23.53